Hampton, Florida
Current Conditions -  °F | °C
As of 5:15 AM on Sunday 25 Jan 2015 (Local Time) from K42J Reporting Station
Clear Clear  
Wind Chill:   Ceiling: Unl
Heat Index:   Visibility: 10mi
Dew Point:   Wind: 3mph
Humidity: 93%   Direction: 310°NW
Pressure: 30.05"   Gusts: NA
Location:  29.86°N, 82.13°W
Report Text: K42J 251015Z AUTO 31003KT 10SM CLR 03/02 A3005 RMK AO1 TSNO
Loading
Personal Weather Stations






























Interactive Weather Map New forecast layout! Learn more

10-Day Weather Forecast

Advertisements
Track Severe Weather on mobile